sensor_id;sensor_type;location;lat;lon;timestamp;pressure;altitude;pressure_sealevel;temperature;humidity
57376;BME280;44805;45.048;5.062;2023-02-12T10:17:41;101399.53;;;1.85;73.04
57376;BME280;44805;45.048;5.062;2023-02-12T10:20:42;101559.63;;;2.91;74.28
57376;BME280;44805;45.048;5.062;2023-02-12T10:30:51;101399.16;;;2.21;70.59
57376;BME280;44805;45.048;5.062;2023-02-12T10:33:02;101470.06;;;2.75;71.17
57376;BME280;44805;45.048;5.062;2023-02-12T10:35:35;101399.53;;;2.35;68.79
57376;BME280;44805;45.048;5.062;2023-02-12T10:41:58;101548.44;;;3.82;68.82
57376;BME280;44805;45.048;5.062;2023-02-12T10:44:26;101406.25;;;3.10;66.44
57376;BME280;44805;45.048;5.062;2023-02-12T10:46:58;101401.69;;;3.17;67.30
57376;BME280;44805;45.048;5.062;2023-02-12T10:49:23;101480.34;;;3.69;66.52
57376;BME280;44805;45.048;5.062;2023-02-12T10:57:56;101414.44;;;3.67;66.46
57376;BME280;44805;45.048;5.062;2023-02-12T11:03:17;101520.03;;;4.59;66.05
57376;BME280;44805;45.048;5.062;2023-02-12T11:05:53;101376.84;;;3.93;64.22
57376;BME280;44805;45.048;5.062;2023-02-12T11:08:35;101362.00;;;3.95;62.50
57376;BME280;44805;45.048;5.062;2023-02-12T11:11:06;101366.16;;;3.99;62.75
57376;BME280;44805;45.048;5.062;2023-02-12T11:13:33;101428.16;;;4.32;62.88
57376;BME280;44805;45.048;5.062;2023-02-12T11:16:00;101368.31;;;4.10;61.99
57376;BME280;44805;45.048;5.062;2023-02-12T11:18:31;101497.75;;;5.29;61.29
57376;BME280;44805;45.048;5.062;2023-02-12T11:30:50;101477.16;;;5.59;60.91
57376;BME280;44805;45.048;5.062;2023-02-12T11:33:21;101402.03;;;5.28;60.90
57376;BME280;44805;45.048;5.062;2023-02-12T11:35:52;101356.72;;;5.29;59.53
57376;BME280;44805;45.048;5.062;2023-02-12T11:38:24;101389.03;;;5.63;60.00
57376;BME280;44805;45.048;5.062;2023-02-12T11:40:55;101325.84;;;5.37;59.44
57376;BME280;44805;45.048;5.062;2023-02-12T11:43:21;101398.22;;;5.87;59.83
57376;BME280;44805;45.048;5.062;2023-02-12T11:45:50;101412.78;;;5.93;58.51
57376;BME280;44805;45.048;5.062;2023-02-12T11:48:34;101283.59;;;5.29;59.02
57376;BME280;44805;45.048;5.062;2023-02-12T11:51:06;101369.78;;;5.81;59.04
57376;BME280;44805;45.048;5.062;2023-02-12T11:54:00;101458.66;;;6.51;58.04
57376;BME280;44805;45.048;5.062;2023-02-12T11:56:44;101394.38;;;6.29;57.21
57376;BME280;44805;45.048;5.062;2023-02-12T12:05:20;101345.44;;;6.32;57.53
57376;BME280;44805;45.048;5.062;2023-02-12T12:07:54;101438.28;;;6.89;55.72
57376;BME280;44805;45.048;5.062;2023-02-12T12:10:44;101351.72;;;6.45;55.26
57376;BME280;44805;45.048;5.062;2023-02-12T12:13:26;101284.56;;;6.12;55.28
57376;BME280;44805;45.048;5.062;2023-02-12T12:16:03;101266.00;;;6.01;56.08
57376;BME280;44805;45.048;5.062;2023-02-12T12:18:55;101365.75;;;6.76;54.91
57376;BME280;44805;45.048;5.062;2023-02-12T12:21:56;101372.59;;;7.10;55.40
57376;BME280;44805;45.048;5.062;2023-02-12T12:27:39;101409.25;;;7.26;55.05
57376;BME280;44805;45.048;5.062;2023-02-12T12:33:40;101406.09;;;7.35;54.54
57376;BME280;44805;45.048;5.062;2023-02-12T12:36:13;101401.84;;;7.48;56.00
57376;BME280;44805;45.048;5.062;2023-02-12T12:52:44;101350.50;;;7.60;54.36
57376;BME280;44805;45.048;5.062;2023-02-12T13:19:04;101355.94;;;8.44;52.97
57376;BME280;44805;45.048;5.062;2023-02-12T13:22:04;101260.56;;;7.74;52.87
57376;BME280;44805;45.048;5.062;2023-02-12T13:24:54;101280.38;;;7.78;53.11
57376;BME280;44805;45.048;5.062;2023-02-12T13:27:30;101211.91;;;7.25;53.97
57376;BME280;44805;45.048;5.062;2023-02-12T13:30:06;101349.09;;;8.27;52.37
57376;BME280;44805;45.048;5.062;2023-02-12T13:35:24;101261.50;;;7.87;53.06
57376;BME280;44805;45.048;5.062;2023-02-12T13:37:57;101213.72;;;7.68;54.10
57376;BME280;44805;45.048;5.062;2023-02-12T13:40:29;101210.91;;;7.71;51.21
57376;BME280;44805;45.048;5.062;2023-02-12T13:48:59;101197.03;;;7.83;52.33
57376;BME280;44805;45.048;5.062;2023-02-12T13:57:23;101201.53;;;7.81;52.49
57376;BME280;44805;45.048;5.062;2023-02-12T13:59:52;101247.03;;;8.23;53.31
57376;BME280;44805;45.048;5.062;2023-02-12T14:05:22;101331.31;;;8.74;51.92
57376;BME280;44805;45.048;5.062;2023-02-12T14:07:53;101325.38;;;8.58;53.63
57376;BME280;44805;45.048;5.062;2023-02-12T14:10:37;101273.00;;;8.69;52.14
57376;BME280;44805;45.048;5.062;2023-02-12T14:13:22;101321.66;;;9.29;51.29
57376;BME280;44805;45.048;5.062;2023-02-12T14:15:57;101182.53;;;8.47;50.30
57376;BME280;44805;45.048;5.062;2023-02-12T14:18:34;101204.28;;;8.62;50.38
57376;BME280;44805;45.048;5.062;2023-02-12T14:23:56;101271.25;;;8.82;52.51
57376;BME280;44805;45.048;5.062;2023-02-12T14:26:52;101232.13;;;8.65;52.21
57376;BME280;44805;45.048;5.062;2023-02-12T14:29:18;101233.13;;;8.50;51.68
57376;BME280;44805;45.048;5.062;2023-02-12T14:31:46;101223.84;;;8.44;52.30
57376;BME280;44805;45.048;5.062;2023-02-12T14:36:46;101321.69;;;9.02;51.41
57376;BME280;44805;45.048;5.062;2023-02-12T14:39:27;101246.66;;;8.71;51.77
57376;BME280;44805;45.048;5.062;2023-02-12T14:44:45;101260.38;;;8.88;51.76
57376;BME280;44805;45.048;5.062;2023-02-12T14:50:16;101223.03;;;8.43;52.68
57376;BME280;44805;45.048;5.062;2023-02-12T14:52:54;101261.13;;;8.63;51.53
57376;BME280;44805;45.048;5.062;2023-02-12T14:55:30;101178.22;;;8.32;52.53
57376;BME280;44805;45.048;5.062;2023-02-12T14:58:01;101162.06;;;8.53;51.68
57376;BME280;44805;45.048;5.062;2023-02-12T15:00:38;101249.50;;;9.20;51.15
57376;BME280;44805;45.048;5.062;2023-02-12T15:08:52;101153.19;;;8.26;51.64
57376;BME280;44805;45.048;5.062;2023-02-12T15:14:34;101255.78;;;9.05;51.54
57376;BME280;44805;45.048;5.062;2023-02-12T15:17:09;101215.63;;;9.03;50.03
57376;BME280;44805;45.048;5.062;2023-02-12T15:19:42;101306.75;;;9.42;51.54
57376;BME280;44805;45.048;5.062;2023-02-12T15:22:20;101270.97;;;9.14;50.86
57376;BME280;44805;45.048;5.062;2023-02-12T15:28:33;101296.59;;;9.23;52.28
57376;BME280;44805;45.048;5.062;2023-02-12T15:31:02;101246.28;;;8.89;52.58
57376;BME280;44805;45.048;5.062;2023-02-12T15:33:49;101151.94;;;8.46;51.41
57376;BME280;44805;45.048;5.062;2023-02-12T15:52:50;101245.06;;;9.08;51.69
57376;BME280;44805;45.048;5.062;2023-02-12T15:55:34;101252.03;;;9.09;52.82
57376;BME280;44805;45.048;5.062;2023-02-12T15:58:04;101235.94;;;9.01;51.27
57376;BME280;44805;45.048;5.062;2023-02-12T16:00:43;101254.13;;;9.04;51.94
